createdAt,value
2023-02-20T00:01:04.909Z,7.70
2023-02-20T00:03:32.233Z,7.70
2023-02-20T00:05:59.427Z,7.70
2023-02-20T00:08:26.487Z,7.80
2023-02-20T00:10:54.255Z,7.80
2023-02-20T00:13:21.406Z,7.80
2023-02-20T00:15:48.482Z,7.90
2023-02-20T00:18:15.734Z,7.90
2023-02-20T00:20:43.866Z,7.90
2023-02-20T00:23:11.783Z,7.90
2023-02-20T00:25:40.405Z,7.90
2023-02-20T00:28:07.600Z,7.80
2023-02-20T00:30:34.789Z,7.80
2023-02-20T00:33:02.992Z,7.80
2023-02-20T00:35:30.089Z,7.70
2023-02-20T00:37:57.698Z,7.70
2023-02-20T00:40:28.915Z,7.70
2023-02-20T00:42:56.001Z,7.70
2023-02-20T00:45:23.120Z,7.70
2023-02-20T00:47:50.299Z,7.70
2023-02-20T00:50:18.838Z,7.70
2023-02-20T00:52:47.438Z,7.70
2023-02-20T00:55:14.705Z,7.60
2023-02-20T00:57:42.109Z,7.60
2023-02-20T01:00:21.415Z,7.60
2023-02-20T01:02:53.929Z,7.60
2023-02-20T01:05:21.397Z,7.50
2023-02-20T01:07:49.506Z,7.30
2023-02-20T01:10:16.725Z,7.20
2023-02-20T01:12:43.850Z,7.10
2023-02-20T01:15:12.758Z,7.00
2023-02-20T01:17:39.977Z,6.90
2023-02-20T01:20:08.961Z,6.80
2023-02-20T01:22:36.071Z,6.80
2023-02-20T01:25:03.445Z,6.70
2023-02-20T01:27:31.882Z,6.60
2023-02-20T01:30:01.608Z,6.50
2023-02-20T01:32:28.660Z,6.40
2023-02-20T01:34:55.780Z,6.20
2023-02-20T01:37:22.944Z,6.00
2023-02-20T01:39:50.064Z,6.10
2023-02-20T01:42:24.817Z,6.00
2023-02-20T01:44:52.082Z,5.80
2023-02-20T01:47:24.042Z,5.70
2023-02-20T01:50:00.977Z,5.70
2023-02-20T01:52:30.876Z,5.70
2023-02-20T01:55:04.665Z,5.50
2023-02-20T01:57:35.909Z,5.30
2023-02-20T02:00:15.177Z,5.10
2023-02-20T02:02:55.563Z,4.90
2023-02-20T02:05:24.633Z,4.80
2023-02-20T02:07:52.044Z,4.60
2023-02-20T02:10:26.142Z,4.50
2023-02-20T02:12:55.190Z,4.30
2023-02-20T02:15:24.712Z,4.20
2023-02-20T02:18:21.861Z,4.20
2023-02-20T02:21:32.779Z,4.10
2023-02-20T02:24:30.187Z,4.00
2023-02-20T02:27:15.314Z,4.00
2023-02-20T02:30:15.854Z,4.10
2023-02-20T02:33:19.472Z,4.10
2023-02-20T02:36:16.777Z,4.00
2023-02-20T02:39:06.845Z,3.80
2023-02-20T02:41:47.877Z,3.70
2023-02-20T02:44:21.029Z,3.70
2023-02-20T02:47:02.837Z,3.70
2023-02-20T02:49:58.958Z,3.70
2023-02-20T02:52:48.795Z,3.70
2023-02-20T02:55:25.182Z,3.70
2023-02-20T02:57:54.989Z,3.50
2023-02-20T03:00:27.939Z,3.70
2023-02-20T03:03:16.307Z,3.60
2023-02-20T03:06:11.893Z,3.70
2023-02-20T03:08:58.003Z,3.70
2023-02-20T03:11:32.351Z,3.70
2023-02-20T03:14:37.024Z,3.80
2023-02-20T03:17:11.771Z,4.00
2023-02-20T03:19:52.109Z,4.00
2023-02-20T03:22:35.735Z,4.00
2023-02-20T03:25:19.568Z,4.00
2023-02-20T03:28:01.296Z,3.90
2023-02-20T03:30:45.691Z,3.80
2023-02-20T03:33:32.432Z,3.80
2023-02-20T03:36:23.540Z,3.70
2023-02-20T03:39:24.989Z,3.70
2023-02-20T03:42:12.489Z,3.80
2023-02-20T03:44:39.729Z,3.90
2023-02-20T03:47:09.950Z,4.00
2023-02-20T03:49:42.396Z,4.10
2023-02-20T03:52:10.310Z,4.20
2023-02-20T03:54:38.456Z,4.30
2023-02-20T03:57:30.182Z,4.40
2023-02-20T04:00:13.675Z,4.40
2023-02-20T04:02:45.045Z,4.50
2023-02-20T04:05:21.611Z,4.50
2023-02-20T04:08:12.016Z,4.50
2023-02-20T04:11:05.386Z,4.50
2023-02-20T04:13:34.073Z,4.50
2023-02-20T04:16:04.653Z,4.40
2023-02-20T04:18:33.102Z,4.40
2023-02-20T04:21:02.559Z,4.30
2023-02-20T04:23:31.720Z,4.40
2023-02-20T04:26:29.342Z,4.30
2023-02-20T04:28:56.621Z,4.20
2023-02-20T04:31:25.984Z,4.10
2023-02-20T04:33:53.164Z,4.00
2023-02-20T04:36:20.609Z,3.90
2023-02-20T04:38:47.656Z,4.00
2023-02-20T04:41:14.985Z,4.00
2023-02-20T04:43:44.523Z,3.90
2023-02-20T04:46:12.146Z,4.00
2023-02-20T04:48:39.600Z,4.00
2023-02-20T04:51:07.144Z,4.00
2023-02-20T04:53:36.368Z,4.00
2023-02-20T04:56:03.452Z,4.00
2023-02-20T04:58:30.625Z,3.90
2023-02-20T05:00:58.732Z,3.90
2023-02-20T05:03:25.850Z,3.80
2023-02-20T05:05:52.912Z,3.80
2023-02-20T05:08:21.282Z,3.90
2023-02-20T05:10:48.462Z,4.00
2023-02-20T05:13:15.614Z,4.10
2023-02-20T05:15:42.751Z,4.30
2023-02-20T05:18:09.864Z,4.20
2023-02-20T05:20:55.301Z,4.20
2023-02-20T05:23:22.483Z,4.20
2023-02-20T05:25:50.180Z,4.10
2023-02-20T05:28:17.334Z,4.10
2023-02-20T05:30:44.569Z,4.00
2023-02-20T05:33:11.764Z,3.90
2023-02-20T05:35:40.612Z,4.00
2023-02-20T05:38:07.794Z,3.90
2023-02-20T05:40:35.019Z,3.90
2023-02-20T05:43:02.116Z,3.80
2023-02-20T05:45:29.298Z,3.90
2023-02-20T05:47:58.872Z,3.90
2023-02-20T05:50:26.071Z,3.90
2023-02-20T05:52:53.477Z,3.90
2023-02-20T05:55:20.699Z,3.90
2023-02-20T05:57:47.838Z,3.80
2023-02-20T06:00:15.433Z,3.70
2023-02-20T06:02:43.733Z,3.60
2023-02-20T06:05:10.866Z,3.50
2023-02-20T06:07:38.126Z,3.30
2023-02-20T06:10:06.325Z,3.40
2023-02-20T06:12:33.490Z,3.40
2023-02-20T06:15:00.608Z,3.40
2023-02-20T06:17:30.760Z,3.40
2023-02-20T06:19:58.060Z,3.40
2023-02-20T06:22:25.172Z,3.40
2023-02-20T06:24:52.297Z,3.30
2023-02-20T06:27:19.474Z,3.30
2023-02-20T06:29:49.703Z,3.40
2023-02-20T06:32:17.662Z,3.40
2023-02-20T06:34:45.631Z,3.40
2023-02-20T06:37:13.612Z,3.40
2023-02-20T06:39:43.073Z,3.40
2023-02-20T06:42:10.509Z,3.50
2023-02-20T06:44:38.107Z,3.70
2023-02-20T06:47:09.015Z,3.90
2023-02-20T06:49:37.360Z,4.00
2023-02-20T06:52:06.194Z,4.10
2023-02-20T06:54:34.460Z,4.20
2023-02-20T06:57:02.437Z,4.30
2023-02-20T06:59:29.772Z,4.50
2023-02-20T07:01:56.913Z,4.50
2023-02-20T07:04:29.613Z,4.60
2023-02-20T07:06:56.818Z,4.70
2023-02-20T07:09:25.329Z,4.90
2023-02-20T07:11:53.657Z,4.90
2023-02-20T07:14:21.808Z,4.90
2023-02-20T07:16:48.900Z,5.00
2023-02-20T07:19:16.144Z,5.10
2023-02-20T07:21:43.433Z,5.20
2023-02-20T07:24:10.701Z,5.30
2023-02-20T07:26:39.617Z,5.50
2023-02-20T07:29:07.553Z,5.60
2023-02-20T07:31:34.799Z,5.60
2023-02-20T07:34:02.045Z,5.50
2023-02-20T07:36:31.177Z,5.60
2023-02-20T07:39:01.566Z,5.60
2023-02-20T07:41:32.400Z,5.60
2023-02-20T07:43:59.756Z,5.50
2023-02-20T07:46:27.640Z,5.60
2023-02-20T07:48:54.834Z,5.70
2023-02-20T07:51:21.952Z,5.80
2023-02-20T07:53:50.830Z,5.90
2023-02-20T07:56:19.096Z,6.10
2023-02-20T07:58:46.275Z,6.20
2023-02-20T08:01:13.416Z,6.30
2023-02-20T08:03:41.074Z,6.30
2023-02-20T08:06:08.492Z,6.40
2023-02-20T08:08:35.676Z,6.50
2023-02-20T08:11:09.209Z,6.60
2023-02-20T08:13:38.569Z,6.70
2023-02-20T08:16:06.663Z,6.90
2023-02-20T08:18:33.882Z,6.90
2023-02-20T08:21:01.115Z,6.90
2023-02-20T08:23:29.275Z,7.00
2023-02-20T08:25:56.896Z,7.10
2023-02-20T08:28:24.201Z,7.30
2023-02-20T08:30:51.453Z,7.40
2023-02-20T08:33:18.894Z,7.50
2023-02-20T08:35:48.606Z,7.60
2023-02-20T08:38:32.293Z,7.60
2023-02-20T08:41:06.914Z,7.60
2023-02-20T08:43:35.701Z,7.60
2023-02-20T08:46:03.182Z,7.60
2023-02-20T08:48:30.828Z,7.50
2023-02-20T08:50:58.136Z,7.50
2023-02-20T08:53:25.229Z,7.50
2023-02-20T08:55:52.810Z,7.60
2023-02-20T08:58:24.517Z,7.80
2023-02-20T09:00:53.242Z,7.80
2023-02-20T09:03:20.435Z,8.00
2023-02-20T09:05:47.781Z,8.10
2023-02-20T09:08:15.213Z,8.20
2023-02-20T09:10:42.426Z,8.30
2023-02-20T09:13:10.674Z,8.40
2023-02-20T09:15:40.080Z,8.50
2023-02-20T09:18:12.419Z,8.50
2023-02-20T09:20:40.255Z,8.50
2023-02-20T09:23:08.135Z,8.50
2023-02-20T09:25:36.161Z,8.50
2023-02-20T09:28:03.884Z,8.50
2023-02-20T09:30:31.135Z,8.50
2023-02-20T09:32:58.262Z,8.50
2023-02-20T09:35:29.885Z,8.60
2023-02-20T09:37:57.776Z,8.60
2023-02-20T09:40:28.572Z,8.60
2023-02-20T09:43:26.221Z,8.50
2023-02-20T09:46:16.120Z,8.40
2023-02-20T09:49:07.082Z,8.40
2023-02-20T09:51:39.654Z,8.40
2023-02-20T09:54:13.632Z,8.30
2023-02-20T09:56:53.350Z,8.30
2023-02-20T09:59:30.112Z,8.40
2023-02-20T10:02:04.709Z,8.50
2023-02-20T10:04:42.069Z,8.70
2023-02-20T10:07:28.352Z,8.80
2023-02-20T10:09:58.085Z,8.90
2023-02-20T10:13:02.550Z,9.00
2023-02-20T10:16:15.714Z,9.10
2023-02-20T10:19:44.280Z,9.10
2023-02-20T10:22:25.994Z,9.00
2023-02-20T10:25:22.712Z,8.90
2023-02-20T10:28:15.371Z,9.00
2023-02-20T10:31:39.507Z,9.10
2023-02-20T10:34:34.657Z,9.20
2023-02-20T10:37:13.647Z,9.50
2023-02-20T10:39:53.371Z,9.70
2023-02-20T10:42:57.858Z,9.90
2023-02-20T10:46:17.228Z,9.90
2023-02-20T10:48:45.535Z,10.00
2023-02-20T10:51:19.908Z,9.90
2023-02-20T10:54:01.001Z,9.90
2023-02-20T10:56:44.327Z,10.00
2023-02-20T10:59:50.864Z,10.00
2023-02-20T11:02:25.755Z,10.10
2023-02-20T11:05:02.509Z,10.30
2023-02-20T11:07:29.661Z,10.40
2023-02-20T11:09:56.740Z,10.60
2023-02-20T11:12:32.351Z,10.70
2023-02-20T11:15:09.398Z,10.80
2023-02-20T11:17:40.289Z,10.80
2023-02-20T11:20:35.379Z,10.90
2023-02-20T11:23:03.458Z,11.00
2023-02-20T11:25:34.289Z,11.20
2023-02-20T11:28:26.635Z,11.30
2023-02-20T11:31:07.051Z,11.60
2023-02-20T11:33:45.611Z,11.80
2023-02-20T11:36:21.099Z,12.40
2023-02-20T11:38:49.559Z,13.10
2023-02-20T11:41:36.488Z,13.30
2023-02-20T11:44:13.296Z,13.50
2023-02-20T11:46:40.784Z,13.90
2023-02-20T11:49:29.244Z,14.00
2023-02-20T11:52:18.995Z,14.10
2023-02-20T11:54:47.422Z,14.40
2023-02-20T11:57:30.013Z,14.70
2023-02-20T12:00:20.032Z,14.90
2023-02-20T12:03:36.354Z,15.00
2023-02-20T12:06:46.313Z,15.50
2023-02-20T12:09:21.100Z,15.80
2023-02-20T12:11:50.762Z,16.00
2023-02-20T12:14:20.530Z,16.20
2023-02-20T12:16:50.706Z,16.40
2023-02-20T12:19:32.695Z,16.50
2023-02-20T12:22:38.256Z,16.10
2023-02-20T12:25:28.236Z,15.90
2023-02-20T12:28:22.561Z,15.80
2023-02-20T12:31:40.658Z,15.70
2023-02-20T12:34:39.942Z,16.00
2023-02-20T12:37:30.033Z,16.30
2023-02-20T12:40:02.642Z,16.80
2023-02-20T12:42:37.092Z,17.60
2023-02-20T12:48:57.061Z,17.00
2023-02-20T12:51:43.629Z,17.30
2023-02-20T12:54:56.167Z,16.90
2023-02-20T12:58:28.036Z,17.00
2023-02-20T13:01:02.378Z,17.40
2023-02-20T13:03:56.518Z,17.40
2023-02-20T13:06:37.274Z,17.20
2023-02-20T13:09:26.890Z,17.00
2023-02-20T13:12:13.797Z,17.40
2023-02-20T13:15:19.068Z,17.60
2023-02-20T13:18:04.102Z,18.70
2023-02-20T13:20:44.290Z,19.20
2023-02-20T13:23:17.803Z,19.60
2023-02-20T13:25:55.601Z,19.90
2023-02-20T13:28:43.262Z,20.30
2023-02-20T13:31:19.713Z,20.40
2023-02-20T13:33:51.200Z,20.50
2023-02-20T13:36:29.412Z,20.00
2023-02-20T13:39:36.244Z,19.10
2023-02-20T13:42:25.873Z,18.90
2023-02-20T13:44:53.172Z,18.80
2023-02-20T13:47:36.674Z,18.80
2023-02-20T13:50:29.752Z,18.00
2023-02-20T13:52:59.076Z,17.70
2023-02-20T13:55:27.635Z,17.50
2023-02-20T13:58:03.771Z,17.20
2023-02-20T14:00:54.363Z,17.10
2023-02-20T14:03:34.721Z,17.20
2023-02-20T14:06:17.964Z,17.10
2023-02-20T14:08:47.992Z,17.10
2023-02-20T14:11:36.619Z,16.80
2023-02-20T14:14:26.807Z,17.00
2023-02-20T14:17:19.705Z,16.90
2023-02-20T14:19:57.413Z,17.20
2023-02-20T14:22:35.424Z,17.70
2023-02-20T14:25:30.476Z,18.20
2023-02-20T14:28:17.105Z,18.20
2023-02-20T14:30:44.421Z,18.10
2023-02-20T14:33:32.981Z,18.40
2023-02-20T14:36:31.291Z,18.50
2023-02-20T14:39:23.156Z,18.30
2023-02-20T14:42:00.759Z,18.60
2023-02-20T14:44:30.530Z,19.00
2023-02-20T14:47:16.693Z,19.30
2023-02-20T14:49:45.574Z,19.50
2023-02-20T14:52:21.546Z,18.50
2023-02-20T14:55:07.001Z,18.20
2023-02-20T14:57:34.945Z,18.00
2023-02-20T15:00:17.342Z,18.30
2023-02-20T15:02:50.891Z,18.10
2023-02-20T15:05:28.048Z,17.80
2023-02-20T15:08:18.998Z,17.60
2023-02-20T15:10:50.468Z,17.60
2023-02-20T15:13:27.462Z,17.80
2023-02-20T15:16:26.329Z,17.70
2023-02-20T15:18:54.695Z,17.10
2023-02-20T15:21:41.134Z,16.50
2023-02-20T15:24:39.444Z,16.10
2023-02-20T15:27:23.244Z,15.60
2023-02-20T15:30:16.727Z,15.30
2023-02-20T15:32:53.062Z,15.20
2023-02-20T15:35:25.733Z,15.20
2023-02-20T15:38:02.883Z,15.20
2023-02-20T15:40:33.283Z,14.90
2023-02-20T15:43:04.615Z,14.50
2023-02-20T15:45:37.767Z,14.10
2023-02-20T15:48:07.303Z,13.80
2023-02-20T15:50:34.934Z,13.60
2023-02-20T15:53:03.887Z,13.50
2023-02-20T15:55:35.130Z,13.20
2023-02-20T15:58:04.573Z,13.00
2023-02-20T16:00:34.283Z,12.80
2023-02-20T16:03:02.408Z,12.60
2023-02-20T16:05:29.719Z,12.50
2023-02-20T16:07:56.957Z,12.30
2023-02-20T16:10:27.136Z,12.10
2023-02-20T16:12:57.350Z,12.00
2023-02-20T16:15:26.383Z,12.00
2023-02-20T16:17:55.155Z,12.00
2023-02-20T16:20:29.916Z,11.80
2023-02-20T16:22:57.494Z,11.80
2023-02-20T16:25:27.658Z,11.80
2023-02-20T16:27:56.917Z,11.80
2023-02-20T16:30:40.166Z,11.60
2023-02-20T16:33:18.508Z,11.60
2023-02-20T16:35:47.404Z,11.40
2023-02-20T16:38:14.630Z,11.40
2023-02-20T16:40:42.604Z,11.20
2023-02-20T16:43:14.010Z,11.20
2023-02-20T16:45:44.533Z,11.00
2023-02-20T16:48:18.215Z,10.90
2023-02-20T16:50:51.280Z,10.70
2023-02-20T16:53:18.726Z,10.50
2023-02-20T16:55:47.384Z,10.30
2023-02-20T16:58:15.400Z,10.20
2023-02-20T17:00:56.673Z,10.10
2023-02-20T17:03:25.473Z,9.90
2023-02-20T17:05:59.445Z,9.90
2023-02-20T17:08:27.653Z,9.80
2023-02-20T17:10:55.112Z,9.80
2023-02-20T17:13:22.381Z,9.70
2023-02-20T17:15:49.605Z,9.70
2023-02-20T17:18:16.727Z,9.70
2023-02-20T17:20:43.941Z,9.70
2023-02-20T17:23:11.279Z,9.60
2023-02-20T17:25:38.386Z,9.50
2023-02-20T17:28:06.697Z,9.30
2023-02-20T17:30:34.065Z,9.20
2023-02-20T17:33:01.200Z,9.20
2023-02-20T17:35:28.377Z,9.10
2023-02-20T17:37:55.631Z,9.10
2023-02-20T17:40:23.018Z,9.10
2023-02-20T17:42:51.741Z,9.10
2023-02-20T17:45:19.036Z,9.10
2023-02-20T17:47:46.810Z,9.20
2023-02-20T17:50:17.785Z,9.20
2023-02-20T17:52:45.932Z,9.20
2023-02-20T17:55:27.045Z,9.20
2023-02-20T17:57:54.312Z,9.10
2023-02-20T18:00:22.010Z,9.00
2023-02-20T18:02:51.343Z,9.00
2023-02-20T18:05:19.181Z,9.00
2023-02-20T18:07:46.934Z,9.00
2023-02-20T18:10:14.109Z,9.00
2023-02-20T18:12:43.398Z,9.00
2023-02-20T18:15:11.930Z,9.00
2023-02-20T18:17:39.167Z,8.90
2023-02-20T18:20:06.668Z,9.00
2023-02-20T18:22:33.737Z,9.00
2023-02-20T18:25:02.096Z,9.10
2023-02-20T18:27:29.277Z,9.00
2023-02-20T18:29:56.708Z,8.90
2023-02-20T18:32:23.913Z,8.80
2023-02-20T18:34:51.096Z,8.80
2023-02-20T18:37:18.222Z,8.70
2023-02-20T18:39:46.741Z,8.60
2023-02-20T18:42:13.912Z,8.60
2023-02-20T18:44:41.024Z,8.60
2023-02-20T18:47:09.362Z,8.60
2023-02-20T18:49:37.540Z,8.60
2023-02-20T18:52:05.193Z,8.60
2023-02-20T18:54:33.904Z,8.60
2023-02-20T18:57:03.089Z,8.60
2023-02-20T18:59:31.926Z,8.60
2023-02-20T19:02:00.074Z,8.60
2023-02-20T19:04:27.237Z,8.60
2023-02-20T19:06:55.376Z,8.60
2023-02-20T19:09:24.970Z,8.50
2023-02-20T19:11:55.479Z,8.60
2023-02-20T19:14:26.332Z,8.60
2023-02-20T19:16:59.398Z,8.50
2023-02-20T19:19:30.506Z,8.40
2023-02-20T19:21:58.658Z,8.40
2023-02-20T19:24:25.915Z,8.40
2023-02-20T19:26:53.026Z,8.50
2023-02-20T19:29:20.446Z,8.50
2023-02-20T19:31:47.720Z,8.50
2023-02-20T19:34:16.668Z,8.50
2023-02-20T19:36:43.982Z,8.30
2023-02-20T19:39:13.307Z,8.30
2023-02-20T19:41:40.870Z,8.30
2023-02-20T19:44:09.969Z,8.20
2023-02-20T19:46:39.031Z,8.30
2023-02-20T19:49:10.026Z,8.20
2023-02-20T19:51:37.228Z,8.20
2023-02-20T19:54:04.564Z,8.00
2023-02-20T19:56:34.483Z,8.00
2023-02-20T19:59:01.772Z,7.90
2023-02-20T20:01:29.217Z,7.80
2023-02-20T20:03:56.427Z,7.90
2023-02-20T20:06:27.103Z,7.70
2023-02-20T20:09:11.664Z,7.60
2023-02-20T20:11:41.439Z,7.50
2023-02-20T20:14:08.617Z,7.50
2023-02-20T20:16:42.872Z,7.40
2023-02-20T20:19:11.001Z,7.30
2023-02-20T20:21:38.709Z,7.10
2023-02-20T20:24:08.481Z,7.00
2023-02-20T20:26:35.961Z,6.80
2023-02-20T20:29:03.552Z,6.60
2023-02-20T20:31:40.393Z,6.50
2023-02-20T20:34:08.274Z,6.40
2023-02-20T20:36:35.948Z,6.40
2023-02-20T20:39:04.264Z,6.30
2023-02-20T20:41:44.089Z,6.20
2023-02-20T20:44:13.330Z,6.10
2023-02-20T20:46:40.660Z,6.00
2023-02-20T20:49:07.820Z,6.00
2023-02-20T20:51:35.498Z,5.90
2023-02-20T20:54:05.763Z,5.90
2023-02-20T20:56:34.658Z,5.80
2023-02-20T20:59:01.816Z,6.00
2023-02-20T21:01:30.320Z,6.10
2023-02-20T21:03:57.438Z,6.20
2023-02-20T21:06:24.550Z,6.20
2023-02-20T21:08:51.720Z,6.20
2023-02-20T21:11:18.860Z,6.20
2023-02-20T21:13:51.699Z,6.10
2023-02-20T21:16:19.131Z,5.90
2023-02-20T21:18:47.044Z,5.80
2023-02-20T21:21:14.457Z,5.80
2023-02-20T21:23:45.515Z,5.90
2023-02-20T21:26:13.317Z,6.00
2023-02-20T21:28:43.366Z,5.80
2023-02-20T21:31:10.582Z,5.60
2023-02-20T21:33:37.808Z,5.60
2023-02-20T21:36:06.927Z,5.50
2023-02-20T21:38:35.192Z,5.50
2023-02-20T21:41:04.089Z,5.40
2023-02-20T21:43:49.679Z,5.40
2023-02-20T21:46:19.554Z,5.30
2023-02-20T21:48:46.681Z,5.30
2023-02-20T21:51:14.149Z,5.20
2023-02-20T21:53:41.467Z,5.20
2023-02-20T21:56:08.572Z,5.10
2023-02-20T21:58:54.168Z,5.20
2023-02-20T22:01:21.206Z,5.30
2023-02-20T22:03:48.201Z,5.20
2023-02-20T22:06:15.272Z,5.10
2023-02-20T22:09:00.728Z,5.00
2023-02-20T22:11:46.314Z,4.90
2023-02-20T22:14:32.185Z,4.70
2023-02-20T22:17:18.049Z,4.60
2023-02-20T22:20:04.515Z,4.50
2023-02-20T22:22:50.890Z,4.40
2023-02-20T22:25:37.248Z,4.30
2023-02-20T22:28:23.232Z,4.30
2023-02-20T22:31:09.058Z,4.20
2023-02-20T22:33:55.213Z,4.20
2023-02-20T22:36:40.819Z,4.10
2023-02-20T22:39:26.683Z,4.00
2023-02-20T22:42:15.372Z,4.00
2023-02-20T22:45:02.701Z,3.90
2023-02-20T22:47:49.134Z,4.00
2023-02-20T22:50:36.118Z,4.00
2023-02-20T22:53:21.845Z,3.90
2023-02-20T22:56:07.554Z,3.80
2023-02-20T22:58:53.427Z,3.80
2023-02-20T23:01:39.148Z,3.70
2023-02-20T23:04:24.868Z,3.60
2023-02-20T23:07:11.239Z,3.60
2023-02-20T23:09:56.912Z,3.60
2023-02-20T23:12:42.523Z,3.60
2023-02-20T23:15:28.178Z,3.60
2023-02-20T23:18:13.902Z,3.70
2023-02-20T23:20:59.321Z,3.70
2023-02-20T23:23:45.216Z,3.60
2023-02-20T23:26:31.360Z,3.50
2023-02-20T23:29:16.876Z,3.50
2023-02-20T23:32:03.926Z,3.50
2023-02-20T23:34:50.183Z,3.50
2023-02-20T23:37:35.864Z,3.40
2023-02-20T23:40:30.882Z,3.30
2023-02-20T23:43:23.119Z,3.30
2023-02-20T23:46:08.816Z,3.30
2023-02-20T23:48:55.015Z,3.20
2023-02-20T23:51:43.008Z,3.20
2023-02-20T23:54:28.318Z,3.20
2023-02-20T23:57:13.872Z,3.20
2023-02-20T23:59:59.360Z,3.30
